GZP1986 UNNT-USMM
Flight info
| Callsign | GZP1986 |
|---|---|
| Flight time | N/A |
| Altitude | 40000 |
| Route | KD G832 LADOV R484 SOREB W143 URAMI G715 LUNEP W255 NESAT |
| Aircraft | B737/M-SDE2E3FGHIRWXY/LB1 |
Departure
| Time | 2026-04-27 07:26 |
|---|---|
| Airport | Novosibirsk Tolmachevo Airport (UNNT) |
Arrival
| Time | N/A |
|---|---|
| Airport | Nadym Airport (USMM) |
| Time | Latitude | Longitude | Altitude | Speed | Heading |
|---|---|---|---|---|---|
| 2026-04-27 07:17 | 55.01016 | 82.67053 | 371 ft | 0 kts | 171° |
| 2026-04-27 07:21 | 55.01018 | 82.67052 | 371 ft | 2 kts | 171° |
| 2026-04-27 07:21 | 55.01034 | 82.67047 | 371 ft | 2 kts | 169° |
| 2026-04-27 07:21 | 55.01051 | 82.67042 | 371 ft | 2 kts | 167° |
| 2026-04-27 07:21 | 55.01067 | 82.67034 | 371 ft | 2 kts | 160° |
| 2026-04-27 07:22 | 55.01081 | 82.67021 | 371 ft | 2 kts | 121° |
| 2026-04-27 07:22 | 55.01084 | 82.66999 | 371 ft | 1 kts | 84° |
| 2026-04-27 07:22 | 55.01084 | 82.66996 | 372 ft | 0 kts | 83° |
| 2026-04-27 07:23 | 55.01086 | 82.67025 | 371 ft | 8 kts | 84° |
| 2026-04-27 07:23 | 55.01097 | 82.67151 | 371 ft | 14 kts | 81° |
| 2026-04-27 07:24 | 55.01110 | 82.67366 | 371 ft | 21 kts | 90° |
| 2026-04-27 07:24 | 55.01203 | 82.67547 | 371 ft | 21 kts | 30° |
| 2026-04-27 07:24 | 55.01334 | 82.67683 | 371 ft | 24 kts | 30° |
| 2026-04-27 07:24 | 55.01449 | 82.67782 | 370 ft | 16 kts | 0° |
| 2026-04-27 07:25 | 55.01481 | 82.67667 | 370 ft | 0 kts | 261° |
| 2026-04-27 07:25 | 55.01460 | 82.67436 | 369 ft | 63 kts | 261° |
| 2026-04-27 07:25 | 55.01343 | 82.66139 | 479 ft | 143 kts | 258° |
| 2026-04-27 07:26 | 55.01108 | 82.64439 | 1967 ft | 144 kts | 257° |
| 2026-04-27 07:26 | 55.00829 | 82.62720 | 3433 ft | 153 kts | 258° |
| 2026-04-27 07:26 | 55.00623 | 82.60798 | 4660 ft | 174 kts | 263° |
| 2026-04-27 07:26 | 55.00457 | 82.58469 | 5424 ft | 215 kts | 263° |
| 2026-04-27 07:27 | 55.00255 | 82.55822 | 6643 ft | 224 kts | 264° |
| 2026-04-27 07:27 | 55.00499 | 82.53162 | 8082 ft | 231 kts | 295° |
| 2026-04-27 07:27 | 55.01601 | 82.50917 | 9236 ft | 261 kts | 321° |
| 2026-04-27 07:27 | 55.03289 | 82.49534 | 10625 ft | 278 kts | 339° |
| 2026-04-27 07:28 | 55.05274 | 82.48670 | 11461 ft | 313 kts | 343° |
| 2026-04-27 07:28 | 55.07550 | 82.47889 | 11839 ft | 355 kts | 345° |
| 2026-04-27 07:28 | 55.10080 | 82.47064 | 12664 ft | 378 kts | 345° |
| 2026-04-27 07:28 | 55.12693 | 82.46195 | 14003 ft | 385 kts | 343° |
| 2026-04-27 07:29 | 55.15343 | 82.45270 | 15133 ft | 393 kts | 342° |
| 2026-04-27 07:29 | 55.18050 | 82.44287 | 16234 ft | 400 kts | 341° |
| 2026-04-27 07:29 | 55.20797 | 82.43268 | 17291 ft | 408 kts | 341° |
| 2026-04-27 07:29 | 55.23603 | 82.42220 | 18284 ft | 416 kts | 341° |
| 2026-04-27 07:30 | 55.26463 | 82.41153 | 19115 ft | 423 kts | 341° |
| 2026-04-27 07:30 | 55.29377 | 82.40145 | 19913 ft | 432 kts | 343° |
| 2026-04-27 07:30 | 55.32349 | 82.39354 | 20656 ft | 442 kts | 345° |
| 2026-04-27 07:30 | 55.35431 | 82.38740 | 21377 ft | 450 kts | 347° |
| 2026-04-27 07:31 | 55.38586 | 82.38293 | 22069 ft | 459 kts | 348° |
| 2026-04-27 07:31 | 55.41797 | 82.37923 | 22734 ft | 465 kts | 348° |
| 2026-04-27 07:31 | 55.45052 | 82.37533 | 23381 ft | 471 kts | 348° |
| 2026-04-27 07:31 | 55.48337 | 82.37084 | 23936 ft | 476 kts | 347° |
| 2026-04-27 07:32 | 55.51660 | 82.36575 | 24463 ft | 480 kts | 347° |
| 2026-04-27 07:32 | 55.54993 | 82.36024 | 24986 ft | 483 kts | 346° |
| 2026-04-27 07:32 | 55.58356 | 82.35446 | 25487 ft | 487 kts | 346° |
| 2026-04-27 07:32 | 55.61745 | 82.34855 | 25942 ft | 491 kts | 346° |
| 2026-04-27 07:33 | 55.65163 | 82.34259 | 26387 ft | 495 kts | 346° |
| 2026-04-27 07:33 | 55.68607 | 82.33661 | 26814 ft | 499 kts | 346° |
| 2026-04-27 07:33 | 55.72068 | 82.33064 | 27228 ft | 502 kts | 346° |
| 2026-04-27 07:33 | 55.75562 | 82.32464 | 27617 ft | 506 kts | 346° |
| 2026-04-27 07:34 | 55.79084 | 82.31859 | 27989 ft | 509 kts | 346° |
| 2026-04-27 07:34 | 55.82624 | 82.31249 | 28346 ft | 512 kts | 346° |
| 2026-04-27 07:34 | 55.86180 | 82.30636 | 28690 ft | 515 kts | 346° |
| 2026-04-27 07:34 | 55.89705 | 82.30027 | 29051 ft | 516 kts | 346° |
| 2026-04-27 07:35 | 55.93278 | 82.29405 | 29484 ft | 515 kts | 346° |
| 2026-04-27 07:35 | 55.96805 | 82.28559 | 29952 ft | 509 kts | 341° |
| 2026-04-27 07:35 | 56.00244 | 82.27247 | 30385 ft | 503 kts | 337° |
| 2026-04-27 07:35 | 56.03556 | 82.25450 | 30753 ft | 489 kts | 327° |
| 2026-04-27 07:36 | 56.06538 | 82.22682 | 31144 ft | 479 kts | 321° |
| 2026-04-27 07:36 | 56.09471 | 82.19835 | 31527 ft | 481 kts | 324° |
| 2026-04-27 07:36 | 56.12549 | 82.17357 | 31878 ft | 488 kts | 329° |
| 2026-04-27 07:36 | 56.15746 | 82.15243 | 32258 ft | 490 kts | 332° |
| 2026-04-27 07:37 | 56.18970 | 82.13249 | 32644 ft | 490 kts | 333° |
| 2026-04-27 07:37 | 56.22178 | 82.11223 | 33021 ft | 488 kts | 332° |
| 2026-04-27 07:37 | 56.25354 | 82.09108 | 33397 ft | 486 kts | 331° |
| 2026-04-27 07:37 | 56.28505 | 82.06902 | 33761 ft | 485 kts | 330° |
| 2026-04-27 07:38 | 56.31629 | 82.04636 | 34122 ft | 484 kts | 330° |
| 2026-04-27 07:38 | 56.34735 | 82.02338 | 34429 ft | 483 kts | 330° |
| 2026-04-27 07:38 | 56.37803 | 82.00050 | 34739 ft | 482 kts | 330° |
| 2026-04-27 07:38 | 56.40896 | 81.97739 | 35043 ft | 481 kts | 330° |
| 2026-04-27 07:39 | 56.43995 | 81.95426 | 35335 ft | 481 kts | 330° |
| 2026-04-27 07:39 | 56.47089 | 81.93119 | 35637 ft | 481 kts | 330° |
| 2026-04-27 07:39 | 56.50186 | 81.90813 | 35950 ft | 480 kts | 330° |
| 2026-04-27 07:39 | 56.53273 | 81.88513 | 36248 ft | 480 kts | 331° |
| 2026-04-27 07:40 | 56.56364 | 81.86207 | 36532 ft | 480 kts | 331° |
| 2026-04-27 07:40 | 56.59447 | 81.83903 | 36832 ft | 479 kts | 331° |
| 2026-04-27 07:40 | 56.62529 | 81.81595 | 37139 ft | 479 kts | 331° |
| 2026-04-27 07:40 | 56.65602 | 81.79290 | 37435 ft | 478 kts | 331° |
| 2026-04-27 07:41 | 56.68673 | 81.76981 | 37718 ft | 478 kts | 332° |
| 2026-04-27 07:41 | 56.71751 | 81.74663 | 38002 ft | 478 kts | 332° |
| 2026-04-27 07:41 | 56.74817 | 81.72350 | 38303 ft | 477 kts | 332° |
| 2026-04-27 07:41 | 56.77881 | 81.70034 | 38594 ft | 477 kts | 332° |
| 2026-04-27 07:42 | 56.80936 | 81.67721 | 38843 ft | 477 kts | 332° |
| 2026-04-27 07:42 | 56.84008 | 81.65391 | 39059 ft | 476 kts | 332° |
| 2026-04-27 07:42 | 56.87070 | 81.63065 | 39277 ft | 476 kts | 332° |
| 2026-04-27 07:42 | 56.90130 | 81.60736 | 39501 ft | 476 kts | 332° |
| 2026-04-27 07:43 | 56.93184 | 81.58407 | 39701 ft | 476 kts | 332° |
| 2026-04-27 07:43 | 56.96237 | 81.56075 | 39914 ft | 475 kts | 332° |
| 2026-04-27 07:43 | 56.99290 | 81.53738 | 40083 ft | 476 kts | 332° |
| 2026-04-27 07:44 | 57.05426 | 81.49026 | 40086 ft | 484 kts | 332° |
| 2026-04-27 07:44 | 57.11687 | 81.44208 | 40085 ft | 490 kts | 332° |
| 2026-04-27 07:45 | 57.17999 | 81.39337 | 40085 ft | 493 kts | 332° |
| 2026-04-27 07:45 | 57.21135 | 81.36917 | 40056 ft | 479 kts | 332° |
| 2026-04-27 07:45 | 57.23148 | 81.35367 | 40056 ft | 468 kts | 332° |
| 2026-04-27 07:45 | 57.26107 | 81.33087 | 40047 ft | 454 kts | 332° |
| 2026-04-27 07:46 | 57.29024 | 81.30822 | 40070 ft | 457 kts | 332° |
| 2026-04-27 07:46 | 57.34941 | 81.26186 | 40083 ft | 467 kts | 332° |
| 2026-04-27 07:47 | 57.40984 | 81.21440 | 40078 ft | 475 kts | 332° |
| 2026-04-27 07:47 | 57.47104 | 81.16636 | 40069 ft | 478 kts | 332° |
| 2026-04-27 07:48 | 57.53243 | 81.11805 | 40062 ft | 479 kts | 332° |
| 2026-04-27 07:48 | 57.59391 | 81.06947 | 40052 ft | 480 kts | 332° |
| 2026-04-27 07:49 | 57.65536 | 81.02070 | 40060 ft | 479 kts | 332° |
| 2026-04-27 07:49 | 57.70637 | 80.98007 | 40051 ft | 479 kts | 332° |